sensor_id;sensor_type;location;lat;lon;timestamp;P1;durP1;ratioP1;P2;durP2;ratioP2
59876;SDS011;45749;51.140;17.184;2023-03-31T00:01:34;4.03;;;2.28;;
59876;SDS011;45749;51.140;17.184;2023-03-31T00:04:00;7.90;;;2.35;;
59876;SDS011;45749;51.140;17.184;2023-03-31T00:06:29;6.15;;;2.15;;
59876;SDS011;45749;51.140;17.184;2023-03-31T00:08:56;3.78;;;1.73;;
59876;SDS011;45749;51.140;17.184;2023-03-31T00:11:26;7.03;;;2.42;;
59876;SDS011;45749;51.140;17.184;2023-03-31T00:13:52;6.40;;;2.75;;
59876;SDS011;45749;51.140;17.184;2023-03-31T00:16:17;6.13;;;2.55;;
59876;SDS011;45749;51.140;17.184;2023-03-31T00:18:43;4.63;;;2.88;;
59876;SDS011;45749;51.140;17.184;2023-03-31T00:21:21;8.77;;;3.80;;
59876;SDS011;45749;51.140;17.184;2023-03-31T00:23:56;5.80;;;3.05;;
59876;SDS011;45749;51.140;17.184;2023-03-31T00:26:25;4.93;;;2.40;;
59876;SDS011;45749;51.140;17.184;2023-03-31T00:28:52;5.43;;;3.17;;
59876;SDS011;45749;51.140;17.184;2023-03-31T00:31:18;4.97;;;3.08;;
59876;SDS011;45749;51.140;17.184;2023-03-31T00:33:44;5.22;;;2.40;;
59876;SDS011;45749;51.140;17.184;2023-03-31T00:36:10;7.43;;;3.08;;
59876;SDS011;45749;51.140;17.184;2023-03-31T00:38:35;7.72;;;3.80;;
59876;SDS011;45749;51.140;17.184;2023-03-31T00:41:01;8.10;;;4.15;;
59876;SDS011;45749;51.140;17.184;2023-03-31T00:43:29;5.63;;;3.05;;
59876;SDS011;45749;51.140;17.184;2023-03-31T00:46:14;12.88;;;6.63;;
59876;SDS011;45749;51.140;17.184;2023-03-31T00:48:50;10.48;;;5.10;;
59876;SDS011;45749;51.140;17.184;2023-03-31T00:51:21;7.57;;;3.30;;
59876;SDS011;45749;51.140;17.184;2023-03-31T00:53:53;5.55;;;2.72;;
59876;SDS011;45749;51.140;17.184;2023-03-31T00:56:27;6.00;;;3.25;;
59876;SDS011;45749;51.140;17.184;2023-03-31T00:58:59;4.53;;;2.45;;
59876;SDS011;45749;51.140;17.184;2023-03-31T01:01:28;6.05;;;3.28;;
59876;SDS011;45749;51.140;17.184;2023-03-31T01:03:54;4.82;;;2.70;;
59876;SDS011;45749;51.140;17.184;2023-03-31T01:06:21;4.72;;;2.50;;
59876;SDS011;45749;51.140;17.184;2023-03-31T01:08:50;6.20;;;2.63;;
59876;SDS011;45749;51.140;17.184;2023-03-31T01:11:17;7.28;;;2.63;;
59876;SDS011;45749;51.140;17.184;2023-03-31T01:13:44;6.78;;;2.88;;
59876;SDS011;45749;51.140;17.184;2023-03-31T01:16:14;5.78;;;2.97;;
59876;SDS011;45749;51.140;17.184;2023-03-31T01:18:40;4.18;;;2.90;;
59876;SDS011;45749;51.140;17.184;2023-03-31T01:45:56;4.38;;;2.50;;
59876;SDS011;45749;51.140;17.184;2023-03-31T01:51:03;4.47;;;2.27;;
59876;SDS011;45749;51.140;17.184;2023-03-31T01:56:15;6.38;;;2.58;;
59876;SDS011;45749;51.140;17.184;2023-03-31T01:58:57;6.15;;;3.08;;
59876;SDS011;45749;51.140;17.184;2023-03-31T02:01:30;6.68;;;3.20;;
59876;SDS011;45749;51.140;17.184;2023-03-31T02:04:15;7.88;;;3.22;;
59876;SDS011;45749;51.140;17.184;2023-03-31T02:06:46;7.82;;;3.75;;
59876;SDS011;45749;51.140;17.184;2023-03-31T02:09:19;6.00;;;3.15;;
59876;SDS011;45749;51.140;17.184;2023-03-31T02:11:48;7.68;;;3.33;;
59876;SDS011;45749;51.140;17.184;2023-03-31T02:14:17;6.13;;;3.40;;
59876;SDS011;45749;51.140;17.184;2023-03-31T02:16:46;6.60;;;3.25;;
59876;SDS011;45749;51.140;17.184;2023-03-31T02:19:16;6.22;;;3.33;;
59876;SDS011;45749;51.140;17.184;2023-03-31T02:21:46;6.50;;;3.35;;
59876;SDS011;45749;51.140;17.184;2023-03-31T02:24:16;7.25;;;4.05;;
59876;SDS011;45749;51.140;17.184;2023-03-31T02:27:03;6.25;;;4.20;;
59876;SDS011;45749;51.140;17.184;2023-03-31T02:29:30;6.72;;;3.70;;
59876;SDS011;45749;51.140;17.184;2023-03-31T02:34:24;7.43;;;3.85;;
59876;SDS011;45749;51.140;17.184;2023-03-31T02:36:49;7.80;;;3.72;;
59876;SDS011;45749;51.140;17.184;2023-03-31T02:39:16;9.20;;;4.43;;
59876;SDS011;45749;51.140;17.184;2023-03-31T02:41:45;9.68;;;4.13;;
59876;SDS011;45749;51.140;17.184;2023-03-31T02:44:11;5.00;;;3.78;;
59876;SDS011;45749;51.140;17.184;2023-03-31T02:46:36;8.00;;;3.72;;
59876;SDS011;45749;51.140;17.184;2023-03-31T02:49:03;8.07;;;3.85;;
59876;SDS011;45749;51.140;17.184;2023-03-31T03:05:58;13.73;;;6.90;;
59876;SDS011;45749;51.140;17.184;2023-03-31T03:11:27;6.05;;;4.35;;
59876;SDS011;45749;51.140;17.184;2023-03-31T03:14:03;8.48;;;4.90;;
59876;SDS011;45749;51.140;17.184;2023-03-31T03:16:45;7.30;;;4.20;;
59876;SDS011;45749;51.140;17.184;2023-03-31T03:21:44;7.15;;;4.40;;
59876;SDS011;45749;51.140;17.184;2023-03-31T03:24:11;7.10;;;4.18;;
59876;SDS011;45749;51.140;17.184;2023-03-31T03:26:38;8.90;;;5.20;;
59876;SDS011;45749;51.140;17.184;2023-03-31T03:29:04;6.18;;;4.60;;
59876;SDS011;45749;51.140;17.184;2023-03-31T03:31:29;5.57;;;4.00;;
59876;SDS011;45749;51.140;17.184;2023-03-31T03:33:57;5.55;;;3.95;;
59876;SDS011;45749;51.140;17.184;2023-03-31T03:36:23;7.22;;;4.97;;
59876;SDS011;45749;51.140;17.184;2023-03-31T03:38:49;6.47;;;4.68;;
59876;SDS011;45749;51.140;17.184;2023-03-31T03:41:15;10.63;;;6.35;;
59876;SDS011;45749;51.140;17.184;2023-03-31T03:43:41;8.20;;;5.88;;
59876;SDS011;45749;51.140;17.184;2023-03-31T03:46:06;6.25;;;4.82;;
59876;SDS011;45749;51.140;17.184;2023-03-31T03:48:32;8.02;;;4.88;;
59876;SDS011;45749;51.140;17.184;2023-03-31T03:50:58;13.75;;;4.82;;
59876;SDS011;45749;51.140;17.184;2023-03-31T03:53:24;5.97;;;3.97;;
59876;SDS011;45749;51.140;17.184;2023-03-31T03:55:50;5.63;;;4.05;;
59876;SDS011;45749;51.140;17.184;2023-03-31T03:58:16;7.63;;;5.10;;
59876;SDS011;45749;51.140;17.184;2023-03-31T04:00:43;5.68;;;4.65;;
59876;SDS011;45749;51.140;17.184;2023-03-31T04:03:09;6.82;;;4.18;;
59876;SDS011;45749;51.140;17.184;2023-03-31T04:05:35;5.05;;;4.20;;
59876;SDS011;45749;51.140;17.184;2023-03-31T04:08:00;8.00;;;4.55;;
59876;SDS011;45749;51.140;17.184;2023-03-31T04:10:26;7.13;;;4.53;;
59876;SDS011;45749;51.140;17.184;2023-03-31T04:12:52;6.57;;;4.20;;
59876;SDS011;45749;51.140;17.184;2023-03-31T04:15:17;10.25;;;4.95;;
59876;SDS011;45749;51.140;17.184;2023-03-31T04:17:43;8.45;;;4.90;;
59876;SDS011;45749;51.140;17.184;2023-03-31T04:20:15;10.25;;;6.75;;
59876;SDS011;45749;51.140;17.184;2023-03-31T04:22:41;9.75;;;6.25;;
59876;SDS011;45749;51.140;17.184;2023-03-31T04:25:11;10.60;;;7.05;;
59876;SDS011;45749;51.140;17.184;2023-03-31T04:27:44;10.45;;;5.38;;
59876;SDS011;45749;51.140;17.184;2023-03-31T04:30:15;11.13;;;5.70;;
59876;SDS011;45749;51.140;17.184;2023-03-31T04:32:50;9.95;;;5.40;;
59876;SDS011;45749;51.140;17.184;2023-03-31T04:37:49;10.90;;;8.13;;
59876;SDS011;45749;51.140;17.184;2023-03-31T04:40:16;9.70;;;8.70;;
59876;SDS011;45749;51.140;17.184;2023-03-31T04:42:42;8.32;;;7.13;;
59876;SDS011;45749;51.140;17.184;2023-03-31T04:45:09;8.15;;;6.30;;
59876;SDS011;45749;51.140;17.184;2023-03-31T04:47:35;10.15;;;6.57;;
59876;SDS011;45749;51.140;17.184;2023-03-31T04:50:01;7.72;;;5.53;;
59876;SDS011;45749;51.140;17.184;2023-03-31T04:52:27;7.05;;;5.68;;
59876;SDS011;45749;51.140;17.184;2023-03-31T04:54:52;7.57;;;5.65;;
59876;SDS011;45749;51.140;17.184;2023-03-31T04:57:18;5.97;;;4.18;;
59876;SDS011;45749;51.140;17.184;2023-03-31T04:59:43;6.03;;;4.22;;
59876;SDS011;45749;51.140;17.184;2023-03-31T05:02:10;8.50;;;5.95;;
59876;SDS011;45749;51.140;17.184;2023-03-31T05:04:35;7.65;;;4.47;;
59876;SDS011;45749;51.140;17.184;2023-03-31T05:07:01;6.22;;;4.20;;
59876;SDS011;45749;51.140;17.184;2023-03-31T05:09:27;7.72;;;4.80;;
59876;SDS011;45749;51.140;17.184;2023-03-31T05:11:53;8.48;;;4.82;;
59876;SDS011;45749;51.140;17.184;2023-03-31T05:14:19;7.55;;;4.70;;
59876;SDS011;45749;51.140;17.184;2023-03-31T05:16:45;7.85;;;5.57;;
59876;SDS011;45749;51.140;17.184;2023-03-31T05:19:10;7.78;;;5.13;;
59876;SDS011;45749;51.140;17.184;2023-03-31T05:21:36;9.18;;;6.53;;
59876;SDS011;45749;51.140;17.184;2023-03-31T05:24:02;11.20;;;5.40;;
59876;SDS011;45749;51.140;17.184;2023-03-31T05:26:28;9.50;;;5.15;;
59876;SDS011;45749;51.140;17.184;2023-03-31T05:28:54;11.65;;;5.60;;
59876;SDS011;45749;51.140;17.184;2023-03-31T05:31:20;8.50;;;5.75;;
59876;SDS011;45749;51.140;17.184;2023-03-31T05:33:45;11.10;;;5.88;;
59876;SDS011;45749;51.140;17.184;2023-03-31T05:36:11;10.05;;;6.05;;
59876;SDS011;45749;51.140;17.184;2023-03-31T05:38:39;11.00;;;6.05;;
59876;SDS011;45749;51.140;17.184;2023-03-31T05:41:05;7.82;;;5.03;;
59876;SDS011;45749;51.140;17.184;2023-03-31T05:43:33;10.65;;;4.97;;
59876;SDS011;45749;51.140;17.184;2023-03-31T05:45:59;5.55;;;4.32;;
59876;SDS011;45749;51.140;17.184;2023-03-31T05:48:24;10.25;;;4.90;;
59876;SDS011;45749;51.140;17.184;2023-03-31T05:50:50;7.65;;;5.13;;
59876;SDS011;45749;51.140;17.184;2023-03-31T05:53:15;6.90;;;4.85;;
59876;SDS011;45749;51.140;17.184;2023-03-31T05:55:40;9.18;;;5.10;;
59876;SDS011;45749;51.140;17.184;2023-03-31T05:58:06;6.07;;;5.18;;
59876;SDS011;45749;51.140;17.184;2023-03-31T06:00:32;8.90;;;5.70;;
59876;SDS011;45749;51.140;17.184;2023-03-31T06:03:00;7.82;;;6.13;;
59876;SDS011;45749;51.140;17.184;2023-03-31T06:05:25;10.30;;;6.55;;
59876;SDS011;45749;51.140;17.184;2023-03-31T06:07:51;6.82;;;5.60;;
59876;SDS011;45749;51.140;17.184;2023-03-31T06:10:17;10.05;;;5.32;;
59876;SDS011;45749;51.140;17.184;2023-03-31T06:12:43;8.07;;;5.18;;
59876;SDS011;45749;51.140;17.184;2023-03-31T06:15:09;7.90;;;6.07;;
59876;SDS011;45749;51.140;17.184;2023-03-31T06:17:34;6.65;;;4.70;;
59876;SDS011;45749;51.140;17.184;2023-03-31T06:20:00;7.45;;;5.07;;
59876;SDS011;45749;51.140;17.184;2023-03-31T06:22:26;9.52;;;5.25;;
59876;SDS011;45749;51.140;17.184;2023-03-31T06:24:51;7.15;;;5.10;;
59876;SDS011;45749;51.140;17.184;2023-03-31T06:27:17;8.43;;;5.38;;
59876;SDS011;45749;51.140;17.184;2023-03-31T06:29:43;6.25;;;4.80;;
59876;SDS011;45749;51.140;17.184;2023-03-31T06:32:09;5.47;;;4.22;;
59876;SDS011;45749;51.140;17.184;2023-03-31T06:34:34;6.78;;;4.38;;
59876;SDS011;45749;51.140;17.184;2023-03-31T06:37:00;8.55;;;4.68;;
59876;SDS011;45749;51.140;17.184;2023-03-31T06:39:25;10.63;;;4.85;;
59876;SDS011;45749;51.140;17.184;2023-03-31T06:41:51;10.82;;;4.20;;
59876;SDS011;45749;51.140;17.184;2023-03-31T06:44:16;6.00;;;4.30;;
59876;SDS011;45749;51.140;17.184;2023-03-31T06:46:43;10.70;;;6.32;;
59876;SDS011;45749;51.140;17.184;2023-03-31T06:49:08;6.97;;;4.35;;
59876;SDS011;45749;51.140;17.184;2023-03-31T06:51:34;7.30;;;4.18;;
59876;SDS011;45749;51.140;17.184;2023-03-31T06:53:59;6.85;;;4.38;;
59876;SDS011;45749;51.140;17.184;2023-03-31T06:56:25;9.07;;;4.03;;
59876;SDS011;45749;51.140;17.184;2023-03-31T06:58:51;8.25;;;4.47;;
59876;SDS011;45749;51.140;17.184;2023-03-31T07:01:16;6.22;;;4.45;;
59876;SDS011;45749;51.140;17.184;2023-03-31T07:03:42;6.38;;;4.50;;
59876;SDS011;45749;51.140;17.184;2023-03-31T07:06:07;7.90;;;4.35;;
59876;SDS011;45749;51.140;17.184;2023-03-31T07:08:32;6.78;;;3.97;;
59876;SDS011;45749;51.140;17.184;2023-03-31T07:10:58;6.07;;;4.45;;
59876;SDS011;45749;51.140;17.184;2023-03-31T07:13:25;8.57;;;4.68;;
59876;SDS011;45749;51.140;17.184;2023-03-31T07:15:51;6.90;;;4.40;;
59876;SDS011;45749;51.140;17.184;2023-03-31T07:18:17;5.88;;;4.38;;
59876;SDS011;45749;51.140;17.184;2023-03-31T07:20:43;7.97;;;5.00;;
59876;SDS011;45749;51.140;17.184;2023-03-31T07:23:11;6.78;;;4.05;;
59876;SDS011;45749;51.140;17.184;2023-03-31T07:25:37;8.18;;;4.57;;
59876;SDS011;45749;51.140;17.184;2023-03-31T07:28:02;6.57;;;4.82;;
59876;SDS011;45749;51.140;17.184;2023-03-31T07:30:29;9.73;;;5.05;;
59876;SDS011;45749;51.140;17.184;2023-03-31T07:32:54;6.15;;;4.68;;
59876;SDS011;45749;51.140;17.184;2023-03-31T07:35:20;7.97;;;4.90;;
59876;SDS011;45749;51.140;17.184;2023-03-31T07:37:47;8.18;;;4.78;;
59876;SDS011;45749;51.140;17.184;2023-03-31T07:40:15;6.30;;;5.55;;
59876;SDS011;45749;51.140;17.184;2023-03-31T07:42:42;10.95;;;5.53;;
59876;SDS011;45749;51.140;17.184;2023-03-31T07:45:08;8.18;;;5.03;;
59876;SDS011;45749;51.140;17.184;2023-03-31T07:47:35;7.97;;;4.95;;
59876;SDS011;45749;51.140;17.184;2023-03-31T07:50:02;8.90;;;4.53;;
59876;SDS011;45749;51.140;17.184;2023-03-31T07:52:28;9.35;;;4.90;;
59876;SDS011;45749;51.140;17.184;2023-03-31T07:54:53;8.48;;;4.22;;
59876;SDS011;45749;51.140;17.184;2023-03-31T07:57:18;6.10;;;4.68;;
59876;SDS011;45749;51.140;17.184;2023-03-31T07:59:44;7.03;;;5.40;;
59876;SDS011;45749;51.140;17.184;2023-03-31T08:02:11;7.55;;;5.97;;
59876;SDS011;45749;51.140;17.184;2023-03-31T08:04:38;6.13;;;5.18;;
59876;SDS011;45749;51.140;17.184;2023-03-31T08:07:06;8.15;;;5.78;;
59876;SDS011;45749;51.140;17.184;2023-03-31T08:09:32;7.95;;;6.03;;
59876;SDS011;45749;51.140;17.184;2023-03-31T08:11:57;10.02;;;6.32;;
59876;SDS011;45749;51.140;17.184;2023-03-31T08:14:23;10.98;;;6.25;;
59876;SDS011;45749;51.140;17.184;2023-03-31T08:16:48;9.05;;;6.75;;
59876;SDS011;45749;51.140;17.184;2023-03-31T08:19:15;10.77;;;6.82;;
59876;SDS011;45749;51.140;17.184;2023-03-31T08:21:40;7.75;;;5.47;;
59876;SDS011;45749;51.140;17.184;2023-03-31T08:24:06;9.80;;;5.63;;
59876;SDS011;45749;51.140;17.184;2023-03-31T08:26:31;9.95;;;5.75;;
59876;SDS011;45749;51.140;17.184;2023-03-31T08:28:59;9.48;;;5.70;;
59876;SDS011;45749;51.140;17.184;2023-03-31T08:31:24;7.68;;;6.22;;
59876;SDS011;45749;51.140;17.184;2023-03-31T08:33:50;8.63;;;5.57;;
59876;SDS011;45749;51.140;17.184;2023-03-31T08:36:15;10.93;;;6.13;;
59876;SDS011;45749;51.140;17.184;2023-03-31T08:38:41;8.50;;;5.57;;
59876;SDS011;45749;51.140;17.184;2023-03-31T08:41:22;8.02;;;5.00;;
59876;SDS011;45749;51.140;17.184;2023-03-31T08:44:30;7.95;;;5.53;;
59876;SDS011;45749;51.140;17.184;2023-03-31T08:46:58;7.13;;;4.75;;
59876;SDS011;45749;51.140;17.184;2023-03-31T08:49:26;8.70;;;4.88;;
59876;SDS011;45749;51.140;17.184;2023-03-31T08:51:58;7.05;;;5.32;;
59876;SDS011;45749;51.140;17.184;2023-03-31T08:54:39;10.07;;;5.28;;
59876;SDS011;45749;51.140;17.184;2023-03-31T08:57:21;5.25;;;3.50;;
59876;SDS011;45749;51.140;17.184;2023-03-31T08:59:51;4.95;;;3.72;;
59876;SDS011;45749;51.140;17.184;2023-03-31T09:02:20;7.85;;;3.30;;
59876;SDS011;45749;51.140;17.184;2023-03-31T09:07:39;3.83;;;2.58;;
59876;SDS011;45749;51.140;17.184;2023-03-31T09:16:32;7.35;;;3.10;;
59876;SDS011;45749;51.140;17.184;2023-03-31T09:19:07;5.28;;;2.80;;
59876;SDS011;45749;51.140;17.184;2023-03-31T09:21:39;7.85;;;3.13;;
59876;SDS011;45749;51.140;17.184;2023-03-31T09:24:17;3.70;;;2.65;;
59876;SDS011;45749;51.140;17.184;2023-03-31T09:29:14;6.65;;;2.88;;
59876;SDS011;45749;51.140;17.184;2023-03-31T09:31:43;3.03;;;2.30;;
59876;SDS011;45749;51.140;17.184;2023-03-31T09:34:23;4.30;;;2.45;;
59876;SDS011;45749;51.140;17.184;2023-03-31T09:36:51;4.88;;;2.60;;
59876;SDS011;45749;51.140;17.184;2023-03-31T09:39:16;4.53;;;2.35;;
59876;SDS011;45749;51.140;17.184;2023-03-31T09:41:43;6.22;;;2.35;;
59876;SDS011;45749;51.140;17.184;2023-03-31T09:44:21;3.30;;;1.90;;
59876;SDS011;45749;51.140;17.184;2023-03-31T09:46:52;5.60;;;2.45;;
59876;SDS011;45749;51.140;17.184;2023-03-31T09:49:21;6.80;;;2.80;;
59876;SDS011;45749;51.140;17.184;2023-03-31T09:51:59;8.95;;;2.78;;
59876;SDS011;45749;51.140;17.184;2023-03-31T09:54:30;4.38;;;2.20;;
59876;SDS011;45749;51.140;17.184;2023-03-31T09:57:01;8.98;;;2.58;;
59876;SDS011;45749;51.140;17.184;2023-03-31T09:59:31;8.40;;;3.30;;
59876;SDS011;45749;51.140;17.184;2023-03-31T10:01:59;8.30;;;3.03;;
59876;SDS011;45749;51.140;17.184;2023-03-31T10:04:29;3.28;;;2.30;;
59876;SDS011;45749;51.140;17.184;2023-03-31T10:06:57;5.30;;;2.63;;
59876;SDS011;45749;51.140;17.184;2023-03-31T10:09:25;5.93;;;2.45;;
59876;SDS011;45749;51.140;17.184;2023-03-31T10:12:16;10.20;;;2.75;;
59876;SDS011;45749;51.140;17.184;2023-03-31T10:17:18;4.78;;;2.22;;
59876;SDS011;45749;51.140;17.184;2023-03-31T10:19:53;5.30;;;2.60;;
59876;SDS011;45749;51.140;17.184;2023-03-31T10:24:47;6.07;;;2.83;;
59876;SDS011;45749;51.140;17.184;2023-03-31T10:27:20;5.25;;;2.33;;
59876;SDS011;45749;51.140;17.184;2023-03-31T10:29:46;4.27;;;3.00;;
59876;SDS011;45749;51.140;17.184;2023-03-31T10:32:17;5.20;;;2.15;;
59876;SDS011;45749;51.140;17.184;2023-03-31T10:34:48;5.28;;;2.60;;
59876;SDS011;45749;51.140;17.184;2023-03-31T10:37:18;4.55;;;2.30;;
59876;SDS011;45749;51.140;17.184;2023-03-31T10:39:47;7.68;;;2.80;;
59876;SDS011;45749;51.140;17.184;2023-03-31T10:42:21;5.45;;;2.63;;
59876;SDS011;45749;51.140;17.184;2023-03-31T10:44:48;5.25;;;2.72;;
59876;SDS011;45749;51.140;17.184;2023-03-31T10:47:20;9.23;;;3.65;;
59876;SDS011;45749;51.140;17.184;2023-03-31T10:49:50;7.60;;;2.42;;
59876;SDS011;45749;51.140;17.184;2023-03-31T10:52:22;7.90;;;3.05;;
59876;SDS011;45749;51.140;17.184;2023-03-31T10:54:57;5.53;;;2.30;;
59876;SDS011;45749;51.140;17.184;2023-03-31T10:57:33;4.25;;;2.25;;
59876;SDS011;45749;51.140;17.184;2023-03-31T11:00:27;8.60;;;2.72;;
59876;SDS011;45749;51.140;17.184;2023-03-31T11:05:34;5.03;;;2.47;;
59876;SDS011;45749;51.140;17.184;2023-03-31T11:11:13;4.75;;;2.47;;
59876;SDS011;45749;51.140;17.184;2023-03-31T11:13:47;6.45;;;2.40;;
59876;SDS011;45749;51.140;17.184;2023-03-31T11:16:17;4.07;;;2.30;;
59876;SDS011;45749;51.140;17.184;2023-03-31T11:21:56;6.68;;;2.75;;
59876;SDS011;45749;51.140;17.184;2023-03-31T11:30:29;6.90;;;2.83;;
59876;SDS011;45749;51.140;17.184;2023-03-31T11:43:44;5.35;;;2.13;;
59876;SDS011;45749;51.140;17.184;2023-03-31T11:49:14;10.07;;;1.90;;
59876;SDS011;45749;51.140;17.184;2023-03-31T11:51:43;7.90;;;3.65;;
59876;SDS011;45749;51.140;17.184;2023-03-31T11:56:55;14.30;;;5.68;;
59876;SDS011;45749;51.140;17.184;2023-03-31T11:59:22;13.48;;;5.13;;
59876;SDS011;45749;51.140;17.184;2023-03-31T12:04:47;12.90;;;5.07;;
59876;SDS011;45749;51.140;17.184;2023-03-31T12:12:31;19.02;;;7.50;;
59876;SDS011;45749;51.140;17.184;2023-03-31T12:17:49;5.50;;;2.90;;
59876;SDS011;45749;51.140;17.184;2023-03-31T12:20:25;9.60;;;4.35;;
59876;SDS011;45749;51.140;17.184;2023-03-31T12:22:53;9.55;;;3.10;;
59876;SDS011;45749;51.140;17.184;2023-03-31T12:25:22;13.35;;;4.35;;
59876;SDS011;45749;51.140;17.184;2023-03-31T12:27:50;16.92;;;5.68;;
59876;SDS011;45749;51.140;17.184;2023-03-31T12:33:06;12.63;;;6.00;;
59876;SDS011;45749;51.140;17.184;2023-03-31T12:46:28;9.38;;;4.68;;
59876;SDS011;45749;51.140;17.184;2023-03-31T12:49:07;12.70;;;5.63;;
59876;SDS011;45749;51.140;17.184;2023-03-31T12:59:32;6.68;;;4.55;;
59876;SDS011;45749;51.140;17.184;2023-03-31T13:04:40;8.23;;;3.05;;
59876;SDS011;45749;51.140;17.184;2023-03-31T13:07:11;4.25;;;2.03;;
59876;SDS011;45749;51.140;17.184;2023-03-31T13:09:57;4.07;;;1.55;;
59876;SDS011;45749;51.140;17.184;2023-03-31T13:15:36;13.43;;;5.55;;
59876;SDS011;45749;51.140;17.184;2023-03-31T13:18:03;9.77;;;3.78;;
59876;SDS011;45749;51.140;17.184;2023-03-31T13:20:39;9.60;;;4.53;;
59876;SDS011;45749;51.140;17.184;2023-03-31T13:25:42;15.00;;;5.95;;
59876;SDS011;45749;51.140;17.184;2023-03-31T13:33:39;12.52;;;6.03;;
59876;SDS011;45749;51.140;17.184;2023-03-31T13:39:23;7.32;;;4.60;;
59876;SDS011;45749;51.140;17.184;2023-03-31T13:50:26;5.65;;;3.47;;
59876;SDS011;45749;51.140;17.184;2023-03-31T14:10:21;8.90;;;3.63;;
59876;SDS011;45749;51.140;17.184;2023-03-31T14:13:05;7.50;;;4.05;;
59876;SDS011;45749;51.140;17.184;2023-03-31T14:15:37;6.85;;;4.15;;
59876;SDS011;45749;51.140;17.184;2023-03-31T14:18:06;6.22;;;4.55;;
59876;SDS011;45749;51.140;17.184;2023-03-31T14:23:29;6.57;;;4.43;;
59876;SDS011;45749;51.140;17.184;2023-03-31T14:29:03;7.80;;;4.25;;
59876;SDS011;45749;51.140;17.184;2023-03-31T14:31:40;6.32;;;4.00;;
59876;SDS011;45749;51.140;17.184;2023-03-31T14:37:09;11.20;;;5.72;;
59876;SDS011;45749;51.140;17.184;2023-03-31T14:39:39;8.85;;;6.28;;
59876;SDS011;45749;51.140;17.184;2023-03-31T14:42:13;8.95;;;5.50;;
59876;SDS011;45749;51.140;17.184;2023-03-31T14:44:41;6.57;;;4.43;;
59876;SDS011;45749;51.140;17.184;2023-03-31T14:47:22;4.97;;;3.88;;
59876;SDS011;45749;51.140;17.184;2023-03-31T14:50:04;12.88;;;6.30;;
59876;SDS011;45749;51.140;17.184;2023-03-31T14:52:36;7.75;;;3.90;;
59876;SDS011;45749;51.140;17.184;2023-03-31T14:55:02;8.82;;;5.80;;
59876;SDS011;45749;51.140;17.184;2023-03-31T14:57:35;10.57;;;5.95;;
59876;SDS011;45749;51.140;17.184;2023-03-31T15:00:05;8.93;;;6.13;;
59876;SDS011;45749;51.140;17.184;2023-03-31T15:02:42;8.25;;;5.22;;
59876;SDS011;45749;51.140;17.184;2023-03-31T15:05:12;9.85;;;5.95;;
59876;SDS011;45749;51.140;17.184;2023-03-31T15:07:50;16.38;;;8.73;;
59876;SDS011;45749;51.140;17.184;2023-03-31T15:10:19;15.55;;;7.05;;
59876;SDS011;45749;51.140;17.184;2023-03-31T15:12:47;16.23;;;8.45;;
59876;SDS011;45749;51.140;17.184;2023-03-31T15:15:14;21.20;;;11.85;;
59876;SDS011;45749;51.140;17.184;2023-03-31T15:17:41;16.95;;;8.25;;
59876;SDS011;45749;51.140;17.184;2023-03-31T15:20:29;15.07;;;8.18;;
59876;SDS011;45749;51.140;17.184;2023-03-31T15:22:56;19.90;;;11.20;;
59876;SDS011;45749;51.140;17.184;2023-03-31T15:25:36;18.65;;;10.35;;
59876;SDS011;45749;51.140;17.184;2023-03-31T15:28:06;20.27;;;10.20;;
59876;SDS011;45749;51.140;17.184;2023-03-31T15:30:38;17.58;;;10.38;;
59876;SDS011;45749;51.140;17.184;2023-03-31T15:33:06;15.80;;;9.93;;
59876;SDS011;45749;51.140;17.184;2023-03-31T15:35:39;12.48;;;7.35;;
59876;SDS011;45749;51.140;17.184;2023-03-31T15:38:05;11.70;;;7.68;;
59876;SDS011;45749;51.140;17.184;2023-03-31T15:40:34;10.68;;;6.82;;
59876;SDS011;45749;51.140;17.184;2023-03-31T15:45:37;11.75;;;6.97;;
59876;SDS011;45749;51.140;17.184;2023-03-31T15:50:45;9.27;;;4.53;;
59876;SDS011;45749;51.140;17.184;2023-03-31T15:53:24;6.85;;;4.28;;
59876;SDS011;45749;51.140;17.184;2023-03-31T15:55:52;7.72;;;5.05;;
59876;SDS011;45749;51.140;17.184;2023-03-31T15:58:23;8.35;;;5.07;;
59876;SDS011;45749;51.140;17.184;2023-03-31T16:01:08;7.90;;;5.20;;
59876;SDS011;45749;51.140;17.184;2023-03-31T16:03:35;8.65;;;5.43;;
59876;SDS011;45749;51.140;17.184;2023-03-31T16:09:12;16.20;;;7.22;;
59876;SDS011;45749;51.140;17.184;2023-03-31T16:11:49;12.73;;;8.32;;
59876;SDS011;45749;51.140;17.184;2023-03-31T16:16:58;11.63;;;7.65;;
59876;SDS011;45749;51.140;17.184;2023-03-31T16:19:29;10.73;;;6.80;;
59876;SDS011;45749;51.140;17.184;2023-03-31T16:22:02;9.80;;;5.93;;
59876;SDS011;45749;51.140;17.184;2023-03-31T16:24:30;8.18;;;5.30;;
59876;SDS011;45749;51.140;17.184;2023-03-31T16:27:01;6.60;;;4.30;;
59876;SDS011;45749;51.140;17.184;2023-03-31T16:29:31;6.75;;;4.25;;
59876;SDS011;45749;51.140;17.184;2023-03-31T16:32:11;8.05;;;4.05;;
59876;SDS011;45749;51.140;17.184;2023-03-31T16:37:16;5.10;;;3.03;;
59876;SDS011;45749;51.140;17.184;2023-03-31T16:39:42;5.07;;;2.97;;
59876;SDS011;45749;51.140;17.184;2023-03-31T16:42:07;9.35;;;5.72;;
59876;SDS011;45749;51.140;17.184;2023-03-31T16:44:33;9.43;;;6.03;;
59876;SDS011;45749;51.140;17.184;2023-03-31T16:46:58;8.80;;;6.18;;
59876;SDS011;45749;51.140;17.184;2023-03-31T16:49:23;5.53;;;3.30;;
59876;SDS011;45749;51.140;17.184;2023-03-31T16:51:49;6.57;;;3.80;;
59876;SDS011;45749;51.140;17.184;2023-03-31T16:54:14;5.22;;;4.20;;
59876;SDS011;45749;51.140;17.184;2023-03-31T16:56:40;5.78;;;3.90;;
59876;SDS011;45749;51.140;17.184;2023-03-31T16:59:05;5.60;;;4.35;;
59876;SDS011;45749;51.140;17.184;2023-03-31T17:01:32;5.80;;;4.20;;
59876;SDS011;45749;51.140;17.184;2023-03-31T17:03:59;6.50;;;4.45;;
59876;SDS011;45749;51.140;17.184;2023-03-31T17:06:24;7.50;;;4.57;;
59876;SDS011;45749;51.140;17.184;2023-03-31T17:08:50;8.68;;;4.53;;
59876;SDS011;45749;51.140;17.184;2023-03-31T17:11:15;5.60;;;3.95;;
59876;SDS011;45749;51.140;17.184;2023-03-31T17:13:41;6.53;;;4.38;;
59876;SDS011;45749;51.140;17.184;2023-03-31T17:16:09;7.38;;;4.75;;
59876;SDS011;45749;51.140;17.184;2023-03-31T17:18:35;10.35;;;6.93;;
59876;SDS011;45749;51.140;17.184;2023-03-31T17:21:08;10.02;;;7.13;;
59876;SDS011;45749;51.140;17.184;2023-03-31T17:23:36;9.07;;;6.30;;
59876;SDS011;45749;51.140;17.184;2023-03-31T17:26:03;12.43;;;9.43;;
59876;SDS011;45749;51.140;17.184;2023-03-31T17:28:30;23.17;;;17.30;;
59876;SDS011;45749;51.140;17.184;2023-03-31T17:30:55;30.42;;;24.35;;
59876;SDS011;45749;51.140;17.184;2023-03-31T17:33:22;25.40;;;20.85;;
59876;SDS011;45749;51.140;17.184;2023-03-31T17:35:48;22.38;;;18.17;;
59876;SDS011;45749;51.140;17.184;2023-03-31T17:38:14;20.70;;;16.50;;
59876;SDS011;45749;51.140;17.184;2023-03-31T17:40:40;17.58;;;13.68;;
59876;SDS011;45749;51.140;17.184;2023-03-31T17:43:05;22.08;;;17.27;;
59876;SDS011;45749;51.140;17.184;2023-03-31T17:45:31;23.40;;;18.08;;
59876;SDS011;45749;51.140;17.184;2023-03-31T17:47:57;28.48;;;18.92;;
59876;SDS011;45749;51.140;17.184;2023-03-31T17:50:24;28.80;;;19.38;;
59876;SDS011;45749;51.140;17.184;2023-03-31T17:52:50;30.10;;;20.10;;
59876;SDS011;45749;51.140;17.184;2023-03-31T17:55:16;29.50;;;17.88;;
59876;SDS011;45749;51.140;17.184;2023-03-31T17:57:42;23.10;;;15.02;;
59876;SDS011;45749;51.140;17.184;2023-03-31T18:00:08;23.38;;;14.43;;
59876;SDS011;45749;51.140;17.184;2023-03-31T18:02:35;23.90;;;16.23;;